Time;durP1;ratioP1;P1;durP2;ratioP2;P2;SDS_P1;SDS_P2;PMS_P1;PMS_P2;Temp;Humidity;BMP_temperature;BMP_pressure;BME280_temperature;BME280_humidity;BME280_pressure;Samples;Min_cycle;Max_cycle;Signal;HPM_P1;HPM_P2
2023/12/02 00:00:23;;;;;;;4.22;2.53;;;;;;;;;;5071565;28;20028;-68
2023/12/02 00:02:48;;;;;;;4.82;2.88;;;;;;;;;;5071898;28;20024;-68
2023/12/02 00:05:14;;;;;;;4.57;2.83;;;;;;;;;;5071799;28;20044;-72
2023/12/02 00:07:39;;;;;;;3.55;2.90;;;;;;;;;;5078858;28;20038;-70
2023/12/02 00:10:06;;;;;;;5.50;2.60;;;;;;;;;;5091325;28;20020;-71
2023/12/02 00:12:31;;;;;;;6.90;2.58;;;;;;;;;;5091068;28;20418;-67
2023/12/02 00:14:57;;;;;;;2.88;2.50;;;;;;;;;;5093675;28;20111;-68
2023/12/02 00:17:22;;;;;;;3.95;2.65;;;;;;;;;;5093945;28;20020;-67
2023/12/02 00:19:48;;;;;;;5.20;2.70;;;;;;;;;;5093907;28;20093;-68
2023/12/02 00:22:13;;;;;;;3.65;2.78;;;;;;;;;;5094065;28;20114;-68
2023/12/02 00:24:39;;;;;;;4.00;2.40;;;;;;;;;;5094470;28;20468;-68
2023/12/02 00:27:04;;;;;;;6.90;2.70;;;;;;;;;;5094718;28;20027;-70
2023/12/02 00:29:30;;;;;;;4.15;2.65;;;;;;;;;;5094211;28;20032;-67
2023/12/02 00:31:55;;;;;;;4.95;2.22;;;;;;;;;;5094539;28;20044;-68
2023/12/02 00:34:21;;;;;;;5.20;2.53;;;;;;;;;;5094905;28;20060;-68
2023/12/02 00:36:48;;;;;;;3.85;2.65;;;;;;;;;;5095316;28;20035;-67
2023/12/02 00:39:13;;;;;;;4.70;2.70;;;;;;;;;;5081240;28;20524;-68
2023/12/02 00:41:39;;;;;;;5.03;2.58;;;;;;;;;;5074707;28;20116;-68
2023/12/02 00:44:05;;;;;;;4.38;2.80;;;;;;;;;;5074539;28;20031;-69
2023/12/02 00:46:30;;;;;;;3.15;2.60;;;;;;;;;;5074867;28;20027;-68
2023/12/02 00:48:56;;;;;;;2.97;2.67;;;;;;;;;;5074593;28;20384;-69
2023/12/02 00:51:21;;;;;;;5.40;2.67;;;;;;;;;;5075077;28;20078;-68
2023/12/02 00:53:47;;;;;;;2.90;2.33;;;;;;;;;;5093931;28;20521;-71
2023/12/02 00:56:12;;;;;;;3.10;2.60;;;;;;;;;;5094946;28;20028;-68
2023/12/02 00:58:38;;;;;;;2.70;2.50;;;;;;;;;;5092474;28;20012;-69
2023/12/02 01:01:03;;;;;;;2.72;2.53;;;;;;;;;;5094810;28;20035;-68
2023/12/02 01:03:29;;;;;;;2.45;2.25;;;;;;;;;;5094599;28;20055;-69
2023/12/02 01:05:55;;;;;;;2.80;2.60;;;;;;;;;;5094476;28;20032;-68
2023/12/02 01:08:21;;;;;;;3.10;2.53;;;;;;;;;;5094392;28;20072;-68
2023/12/02 01:10:46;;;;;;;3.22;2.47;;;;;;;;;;5094731;28;20076;-67
2023/12/02 01:13:12;;;;;;;2.83;2.50;;;;;;;;;;5094303;28;20437;-68
2023/12/02 01:15:37;;;;;;;4.20;2.53;;;;;;;;;;5094177;28;20032;-68
2023/12/02 01:18:03;;;;;;;2.60;2.40;;;;;;;;;;5094271;28;20016;-68
2023/12/02 01:20:28;;;;;;;2.83;2.47;;;;;;;;;;5094058;28;20026;-70
2023/12/02 01:22:54;;;;;;;4.18;2.30;;;;;;;;;;5094504;28;20032;-68
2023/12/02 01:25:19;;;;;;;4.55;2.33;;;;;;;;;;5094517;28;20103;-68
2023/12/02 01:27:45;;;;;;;3.00;2.40;;;;;;;;;;5094078;28;20444;-67
2023/12/02 01:30:11;;;;;;;4.10;2.63;;;;;;;;;;5094122;28;20028;-67
2023/12/02 01:32:37;;;;;;;3.15;2.40;;;;;;;;;;5094094;28;20024;-69
2023/12/02 01:35:02;;;;;;;3.10;2.53;;;;;;;;;;5093945;28;20067;-68
2023/12/02 01:37:28;;;;;;;3.03;2.38;;;;;;;;;;5093981;28;20052;-68
2023/12/02 01:39:53;;;;;;;2.58;2.30;;;;;;;;;;5093959;28;20040;-68
2023/12/02 01:42:19;;;;;;;3.22;2.42;;;;;;;;;;5093835;28;20056;-68
2023/12/02 01:44:45;;;;;;;2.78;2.25;;;;;;;;;;5093885;28;20028;-70
2023/12/02 01:47:10;;;;;;;4.35;2.60;;;;;;;;;;5093738;28;20056;-69
2023/12/02 01:49:37;;;;;;;4.32;2.50;;;;;;;;;;5093715;28;20364;-71
2023/12/02 01:52:03;;;;;;;2.40;2.20;;;;;;;;;;5092437;28;20495;-71
2023/12/02 01:54:29;;;;;;;2.63;2.33;;;;;;;;;;5093502;28;20051;-72
2023/12/02 01:56:55;;;;;;;3.65;2.40;;;;;;;;;;5093542;28;20031;-71
2023/12/02 01:59:22;;;;;;;3.50;2.63;;;;;;;;;;5093591;28;20016;-70
2023/12/02 02:01:48;;;;;;;2.33;2.13;;;;;;;;;;5093438;28;20049;-71
2023/12/02 02:04:14;;;;;;;2.67;2.47;;;;;;;;;;5093356;28;20036;-72
2023/12/02 02:06:39;;;;;;;3.55;2.70;;;;;;;;;;5093735;28;20468;-70
2023/12/02 02:09:05;;;;;;;2.40;2.20;;;;;;;;;;5093591;28;20028;-70
2023/12/02 02:11:31;;;;;;;2.92;2.10;;;;;;;;;;5093655;28;20020;-68
2023/12/02 02:13:56;;;;;;;2.70;2.50;;;;;;;;;;5093505;28;20027;-70
2023/12/02 02:16:22;;;;;;;2.45;2.25;;;;;;;;;;5093470;28;20145;-69
2023/12/02 02:18:47;;;;;;;3.90;2.33;;;;;;;;;;5093230;28;20067;-69
2023/12/02 02:21:31;;;;;;;3.10;2.28;;;;;;;;;;5093156;28;20026;-70
2023/12/02 02:23:56;;;;;;;3.22;2.58;;;;;;;;;;5093121;28;20028;-69
2023/12/02 02:26:22;;;;;;;2.53;2.20;;;;;;;;;;5093029;28;20103;-70
2023/12/02 02:28:47;;;;;;;4.82;2.50;;;;;;;;;;5092617;28;20024;-70
2023/12/02 02:31:13;;;;;;;3.58;2.45;;;;;;;;;;5093009;28;20028;-70
2023/12/02 02:33:38;;;;;;;2.35;2.15;;;;;;;;;;5092806;28;20047;-70
2023/12/02 02:36:04;;;;;;;2.92;2.50;;;;;;;;;;5092574;28;20515;-69
2023/12/02 02:38:29;;;;;;;2.35;2.15;;;;;;;;;;5093131;28;20101;-71
2023/12/02 02:40:55;;;;;;;2.42;2.22;;;;;;;;;;5092880;28;20028;-70
2023/12/02 02:43:20;;;;;;;3.97;2.10;;;;;;;;;;5092815;28;20024;-70
2023/12/02 02:45:46;;;;;;;4.03;2.47;;;;;;;;;;5092775;28;20026;-70
2023/12/02 02:48:12;;;;;;;4.20;2.50;;;;;;;;;;5092791;28;20055;-69
2023/12/02 02:50:37;;;;;;;2.33;2.10;;;;;;;;;;5091426;28;20034;-69
2023/12/02 02:53:03;;;;;;;2.40;2.20;;;;;;;;;;5092682;28;20103;-68
2023/12/02 02:55:28;;;;;;;3.67;2.08;;;;;;;;;;5092585;28;20034;-68
2023/12/02 02:57:54;;;;;;;15.13;3.60;;;;;;;;;;5092667;28;20047;-69
2023/12/02 03:00:19;;;;;;;4.63;3.20;;;;;;;;;;5092554;28;20032;-68
2023/12/02 13:18:19;;;;;;;15.05;6.35;;;;;;;;;;5104976;27;20416;-70
2023/12/02 13:20:45;;;;;;;16.27;5.78;;;;;;;;;;5108857;28;20040;-71
2023/12/02 13:23:14;;;;;;;15.63;5.72;;;;;;;;;;5108962;28;20028;-70
2023/12/02 13:25:41;;;;;;;7.40;5.22;;;;;;;;;;5108404;28;20051;-75
2023/12/02 13:28:25;;;;;;;10.10;5.78;;;;;;;;;;5108851;28;20036;-71
2023/12/02 13:30:54;;;;;;;12.02;5.60;;;;;;;;;;5108762;28;20472;-70
2023/12/02 13:33:28;;;;;;;16.42;6.07;;;;;;;;;;5108512;28;20208;-71
2023/12/02 13:36:15;;;;;;;14.52;5.75;;;;;;;;;;5106366;28;20040;-70
2023/12/02 13:39:11;;;;;;;17.38;5.90;;;;;;;;;;5108380;28;20031;-74
2023/12/02 13:41:48;;;;;;;21.83;6.25;;;;;;;;;;5108088;28;20479;-75
2023/12/02 13:44:16;;;;;;;14.52;6.35;;;;;;;;;;5108672;28;20126;-75
2023/12/02 13:47:13;;;;;;;17.65;6.38;;;;;;;;;;5108631;28;20039;-73
2023/12/02 13:49:45;;;;;;;12.93;5.70;;;;;;;;;;5108043;28;20072;-70
2023/12/02 13:52:35;;;;;;;10.23;4.97;;;;;;;;;;5105441;28;20480;-70
2023/12/02 13:55:22;;;;;;;17.23;5.72;;;;;;;;;;5108137;28;20032;-69
2023/12/02 13:58:06;;;;;;;14.00;5.60;;;;;;;;;;5107689;28;20479;-73
2023/12/02 14:01:02;;;;;;;12.35;5.20;;;;;;;;;;5106231;28;20447;-71
2023/12/02 14:03:49;;;;;;;12.13;5.43;;;;;;;;;;5100680;28;20032;-75
2023/12/02 14:06:20;;;;;;;14.98;5.35;;;;;;;;;;5106481;28;20020;-69
2023/12/02 14:08:53;;;;;;;14.52;5.22;;;;;;;;;;5107588;28;20114;-69
2023/12/02 14:11:29;;;;;;;13.45;5.65;;;;;;;;;;5107857;28;20112;-69
2023/12/02 14:14:23;;;;;;;16.05;5.60;;;;;;;;;;5107821;28;20032;-71
2023/12/02 14:17:17;;;;;;;17.00;5.22;;;;;;;;;;5107408;28;20051;-72
2023/12/02 14:20:22;;;;;;;11.95;4.82;;;;;;;;;;5077841;28;20058;-72
2023/12/02 14:23:40;;;;;;;16.25;6.03;;;;;;;;;;5039917;28;20042;-72
2023/12/02 14:26:27;;;;;;;11.30;5.28;;;;;;;;;;5063359;28;20047;-70
2023/12/02 14:29:03;;;;;;;18.95;5.50;;;;;;;;;;5096044;28;20466;-71
2023/12/02 14:31:58;;;;;;;15.65;5.68;;;;;;;;;;5094086;28;20063;-66
2023/12/02 14:34:48;;;;;;;12.85;5.43;;;;;;;;;;5086771;28;20048;-67
2023/12/02 14:37:51;;;;;;;13.23;5.13;;;;;;;;;;5090310;28;20099;-68
2023/12/02 14:40:34;;;;;;;19.70;5.63;;;;;;;;;;5093360;28;20429;-68
2023/12/02 14:43:37;;;;;;;16.75;5.00;;;;;;;;;;5093675;28;20031;-72
2023/12/02 14:46:05;;;;;;;14.20;5.15;;;;;;;;;;5093478;28;20020;-70
2023/12/02 14:48:32;;;;;;;18.85;5.35;;;;;;;;;;5093451;28;20020;-70
2023/12/02 14:51:01;;;;;;;14.13;5.40;;;;;;;;;;5092851;28;20016;-69
2023/12/02 14:53:39;;;;;;;12.75;5.57;;;;;;;;;;5090689;28;20032;-69
2023/12/02 14:56:26;;;;;;;14.73;5.85;;;;;;;;;;5092138;28;20028;-72
2023/12/02 14:58:53;;;;;;;16.98;5.10;;;;;;;;;;5093367;28;20043;-71
2023/12/02 15:01:29;;;;;;;15.05;5.25;;;;;;;;;;5093521;28;20094;-71
2023/12/02 15:03:55;;;;;;;13.27;5.63;;;;;;;;;;5092779;28;20039;-71
2023/12/02 15:06:22;;;;;;;10.68;4.90;;;;;;;;;;5092648;28;20036;-71
2023/12/02 15:08:51;;;;;;;11.95;5.38;;;;;;;;;;5093228;28;20020;-71
2023/12/02 15:11:17;;;;;;;10.82;4.93;;;;;;;;;;5091711;28;20430;-71
2023/12/02 15:13:43;;;;;;;12.77;5.28;;;;;;;;;;5093030;28;20028;-71
2023/12/02 15:16:10;;;;;;;12.38;5.35;;;;;;;;;;5092741;28;20046;-71
2023/12/02 15:18:36;;;;;;;12.48;5.78;;;;;;;;;;5092888;28;20107;-71
2023/12/02 15:21:12;;;;;;;13.88;5.22;;;;;;;;;;5092893;28;20024;-69
2023/12/02 15:23:41;;;;;;;15.27;5.00;;;;;;;;;;5093010;28;20048;-71
2023/12/02 15:26:12;;;;;;;11.40;4.68;;;;;;;;;;5091930;28;20085;-76
2023/12/02 15:28:37;;;;;;;13.05;4.88;;;;;;;;;;5092707;28;20483;-69
2023/12/02 15:31:12;;;;;;;11.98;5.70;;;;;;;;;;5092475;28;20085;-70
2023/12/02 15:33:51;;;;;;;23.10;5.07;;;;;;;;;;5090796;28;20035;-69
2023/12/02 15:36:24;;;;;;;17.92;5.38;;;;;;;;;;5092863;28;20438;-70
2023/12/02 15:38:52;;;;;;;19.25;5.57;;;;;;;;;;5092526;28;20016;-71
2023/12/02 15:41:18;;;;;;;13.82;4.93;;;;;;;;;;5091655;28;20028;-70
2023/12/02 15:43:43;;;;;;;13.18;6.10;;;;;;;;;;5092700;28;20534;-70
2023/12/02 15:46:09;;;;;;;15.20;5.95;;;;;;;;;;5082792;28;20105;-68
2023/12/02 15:48:39;;;;;;;9.02;5.28;;;;;;;;;;5072161;28;20052;-68
2023/12/02 15:51:05;;;;;;;11.60;5.13;;;;;;;;;;5070729;28;20036;-70
2023/12/02 15:53:32;;;;;;;10.18;5.43;;;;;;;;;;5070804;28;20047;-69
2023/12/02 15:56:01;;;;;;;32.42;6.57;;;;;;;;;;5072040;28;20039;-68
2023/12/02 15:58:27;;;;;;;46.80;6.80;;;;;;;;;;5071854;28;20024;-68
2023/12/02 16:00:58;;;;;;;42.60;6.68;;;;;;;;;;5071844;28;20427;-68
2023/12/02 16:03:24;;;;;;;26.73;5.82;;;;;;;;;;5071841;28;20035;-68
2023/12/02 16:05:49;;;;;;;32.50;5.85;;;;;;;;;;5071711;28;20036;-68
2023/12/02 16:08:22;;;;;;;24.13;5.57;;;;;;;;;;5071713;28;20465;-68
2023/12/02 16:11:02;;;;;;;26.25;5.43;;;;;;;;;;5071573;28;20032;-71
2023/12/02 16:13:28;;;;;;;25.15;6.25;;;;;;;;;;5071691;28;20108;-71
2023/12/02 16:15:54;;;;;;;31.95;5.90;;;;;;;;;;5071463;28;20111;-70
2023/12/02 16:18:20;;;;;;;30.52;6.78;;;;;;;;;;5071456;28;20564;-71
2023/12/02 16:20:46;;;;;;;25.13;5.53;;;;;;;;;;5077625;28;20055;-71
2023/12/02 16:23:13;;;;;;;15.63;5.28;;;;;;;;;;5071487;28;20484;-71
2023/12/02 16:25:39;;;;;;;15.00;5.70;;;;;;;;;;5071701;28;20388;-70
2023/12/02 16:28:05;;;;;;;18.65;5.30;;;;;;;;;;5071363;28;20036;-70
2023/12/02 16:30:31;;;;;;;14.30;4.90;;;;;;;;;;5077645;28;20438;-70
2023/12/02 16:32:56;;;;;;;27.70;5.47;;;;;;;;;;5091503;28;20027;-71
2023/12/02 16:35:22;;;;;;;24.00;5.30;;;;;;;;;;5091784;28;20035;-71
2023/12/02 16:37:47;;;;;;;38.47;7.93;;;;;;;;;;5091455;28;20028;-74
2023/12/02 16:40:13;;;;;;;25.58;6.15;;;;;;;;;;5091529;28;20028;-73
2023/12/02 16:42:39;;;;;;;22.95;5.75;;;;;;;;;;5091389;28;20035;-72
2023/12/02 16:45:21;;;;;;;32.10;5.93;;;;;;;;;;5091702;28;20024;-72
2023/12/02 16:47:51;;;;;;;25.00;7.20;;;;;;;;;;5091388;28;20488;-70
2023/12/02 16:50:23;;;;;;;30.48;6.43;;;;;;;;;;5090725;28;20090;-77
2023/12/02 16:52:53;;;;;;;31.27;6.43;;;;;;;;;;5090790;28;20039;-72
2023/12/02 16:55:27;;;;;;;27.67;6.85;;;;;;;;;;5091289;28;20032;-71
2023/12/02 16:57:54;;;;;;;27.08;6.57;;;;;;;;;;5090909;28;20060;-72
2023/12/02 17:00:24;;;;;;;24.58;6.28;;;;;;;;;;5091113;28;20188;-72
2023/12/02 17:02:53;;;;;;;27.63;6.47;;;;;;;;;;5091188;28;20024;-72
2023/12/02 17:05:27;;;;;;;24.42;6.35;;;;;;;;;;5091344;28;20055;-72
2023/12/02 17:08:03;;;;;;;19.40;6.22;;;;;;;;;;5090931;28;20035;-72
2023/12/02 17:10:44;;;;;;;21.60;5.80;;;;;;;;;;5091078;28;20062;-72
2023/12/02 17:13:35;;;;;;;23.13;6.60;;;;;;;;;;5091044;28;20033;-72
2023/12/02 17:16:01;;;;;;;24.90;6.97;;;;;;;;;;5091036;28;20023;-72
2023/12/02 17:18:38;;;;;;;28.42;6.30;;;;;;;;;;5070837;28;20029;-72
2023/12/02 17:21:04;;;;;;;29.20;6.50;;;;;;;;;;5070799;28;20032;-73
2023/12/02 17:23:32;;;;;;;32.30;6.38;;;;;;;;;;5070760;28;20024;-71
2023/12/02 17:25:59;;;;;;;24.80;7.22;;;;;;;;;;5069378;28;20111;-71
2023/12/02 17:28:24;;;;;;;21.75;6.50;;;;;;;;;;5070620;28;20045;-75
2023/12/02 17:30:51;;;;;;;29.02;6.47;;;;;;;;;;5070848;28;20032;-70
2023/12/02 17:33:16;;;;;;;21.55;6.30;;;;;;;;;;5070673;28;20036;-76
2023/12/02 17:35:42;;;;;;;22.23;7.68;;;;;;;;;;5070872;28;20605;-71
2023/12/02 17:38:08;;;;;;;30.35;7.88;;;;;;;;;;5070550;28;20036;-70
2023/12/02 17:40:33;;;;;;;28.60;7.28;;;;;;;;;;5070356;28;20036;-70
2023/12/02 17:42:59;;;;;;;27.77;7.10;;;;;;;;;;5070717;28;20552;-69
2023/12/02 17:45:24;;;;;;;25.45;7.93;;;;;;;;;;5070855;28;20468;-69
2023/12/02 17:47:50;;;;;;;29.85;8.45;;;;;;;;;;5070324;28;20039;-68
2023/12/02 17:50:15;;;;;;;28.88;8.23;;;;;;;;;;5070423;28;20508;-68
2023/12/02 17:52:43;;;;;;;21.83;7.38;;;;;;;;;;5070399;28;20040;-68
2023/12/02 17:55:08;;;;;;;25.38;8.02;;;;;;;;;;5070373;28;20038;-69
2023/12/02 17:57:34;;;;;;;14.57;6.40;;;;;;;;;;5070453;28;20115;-69
2023/12/02 17:59:59;;;;;;;30.45;8.25;;;;;;;;;;5070788;28;20028;-70
2023/12/02 18:02:25;;;;;;;26.27;8.43;;;;;;;;;;5069039;28;20036;-69
2023/12/02 18:04:50;;;;;;;21.95;7.22;;;;;;;;;;5072370;28;20029;-70
2023/12/02 18:07:16;;;;;;;21.60;7.90;;;;;;;;;;5074524;28;20419;-68
2023/12/02 18:09:41;;;;;;;25.65;7.45;;;;;;;;;;5074341;28;20378;-69
2023/12/02 18:12:07;;;;;;;21.02;8.40;;;;;;;;;;5074155;28;20024;-70
2023/12/02 18:14:33;;;;;;;22.85;7.78;;;;;;;;;;5074093;28;20036;-70
2023/12/02 18:16:58;;;;;;;20.75;7.82;;;;;;;;;;5081760;28;20044;-70
2023/12/02 18:19:24;;;;;;;23.80;8.73;;;;;;;;;;5094200;28;20115;-70
2023/12/02 18:21:50;;;;;;;22.08;8.65;;;;;;;;;;5093646;28;20024;-69
2023/12/02 18:24:16;;;;;;;24.45;7.80;;;;;;;;;;5094103;28;20024;-69
2023/12/02 18:26:42;;;;;;;22.17;7.95;;;;;;;;;;5094200;28;20028;-74
2023/12/02 18:29:08;;;;;;;19.77;7.25;;;;;;;;;;5093983;28;20067;-70
2023/12/02 18:31:35;;;;;;;20.55;6.85;;;;;;;;;;5093276;28;20063;-76
2023/12/02 18:34:01;;;;;;;17.83;6.85;;;;;;;;;;5093467;28;20039;-70
2023/12/02 18:36:26;;;;;;;19.23;6.82;;;;;;;;;;5092074;28;20024;-68
2023/12/02 18:38:52;;;;;;;19.05;7.05;;;;;;;;;;5093671;28;20047;-68
2023/12/02 18:41:17;;;;;;;21.95;7.28;;;;;;;;;;5093687;28;20483;-69
2023/12/02 18:43:43;;;;;;;22.48;7.13;;;;;;;;;;5093723;28;20027;-70
2023/12/02 18:46:09;;;;;;;22.42;6.63;;;;;;;;;;5093896;28;20437;-69
2023/12/02 18:48:34;;;;;;;21.20;7.22;;;;;;;;;;5093563;28;20099;-70
2023/12/02 18:51:00;;;;;;;19.27;7.80;;;;;;;;;;5093425;28;20139;-70
2023/12/02 18:53:25;;;;;;;19.48;7.53;;;;;;;;;;5093464;28;20027;-71
2023/12/02 18:55:51;;;;;;;19.15;7.00;;;;;;;;;;5093492;28;20031;-74
2023/12/02 18:58:16;;;;;;;22.80;6.80;;;;;;;;;;5093416;28;20514;-70
2023/12/02 19:00:42;;;;;;;18.35;7.65;;;;;;;;;;5093400;28;20058;-70
2023/12/02 19:03:08;;;;;;;17.52;7.80;;;;;;;;;;5093617;28;20652;-70
2023/12/02 19:05:33;;;;;;;24.63;6.75;;;;;;;;;;5091824;28;20059;-71
2023/12/02 19:07:59;;;;;;;21.60;7.30;;;;;;;;;;5076151;28;20170;-69
2023/12/02 19:10:24;;;;;;;17.58;6.45;;;;;;;;;;5073068;28;20020;-70
2023/12/02 19:12:50;;;;;;;20.65;7.07;;;;;;;;;;5072999;28;20492;-70
2023/12/02 19:15:16;;;;;;;21.15;6.70;;;;;;;;;;5072694;28;20596;-73
2023/12/02 19:17:43;;;;;;;18.45;6.55;;;;;;;;;;5072907;28;20056;-70
2023/12/02 19:20:09;;;;;;;24.10;7.65;;;;;;;;;;5071370;28;20047;-69
2023/12/02 19:22:34;;;;;;;18.38;5.93;;;;;;;;;;5072830;28;20391;-70
2023/12/02 19:25:00;;;;;;;17.88;6.97;;;;;;;;;;5072776;28;20067;-70
2023/12/02 19:27:25;;;;;;;20.27;6.70;;;;;;;;;;5072612;28;20032;-70
2023/12/02 19:29:51;;;;;;;25.30;6.70;;;;;;;;;;5072721;28;20025;-70
2023/12/02 19:32:16;;;;;;;16.52;6.90;;;;;;;;;;5072513;28;20029;-71
2023/12/02 19:34:42;;;;;;;19.20;7.32;;;;;;;;;;5072709;28;20031;-69
2023/12/02 19:37:08;;;;;;;20.92;7.47;;;;;;;;;;5072399;28;20388;-69
2023/12/02 19:39:37;;;;;;;20.27;6.72;;;;;;;;;;5072538;28;20220;-69
2023/12/02 19:42:04;;;;;;;24.58;7.75;;;;;;;;;;5084273;28;20031;-70
2023/12/02 19:44:30;;;;;;;19.95;7.40;;;;;;;;;;5092662;28;20039;-69
2023/12/02 19:46:58;;;;;;;18.60;6.47;;;;;;;;;;5092529;28;20024;-70
2023/12/02 19:49:24;;;;;;;11.63;6.03;;;;;;;;;;5092311;28;20028;-69
2023/12/02 19:51:50;;;;;;;17.15;6.43;;;;;;;;;;5092549;28;20028;-69
2023/12/02 19:54:15;;;;;;;20.25;7.85;;;;;;;;;;5092169;28;20032;-69
2023/12/02 19:56:42;;;;;;;19.15;7.40;;;;;;;;;;5092200;28;20388;-68
2023/12/02 19:59:07;;;;;;;19.05;7.85;;;;;;;;;;5092079;28;20024;-68
2023/12/02 20:01:34;;;;;;;20.33;7.15;;;;;;;;;;5092370;28;20031;-69
2023/12/02 20:03:59;;;;;;;21.50;7.50;;;;;;;;;;5092091;28;20028;-70
2023/12/02 20:06:25;;;;;;;22.77;7.50;;;;;;;;;;5092087;28;20032;-70
2023/12/02 20:08:50;;;;;;;25.55;7.47;;;;;;;;;;5091958;28;20123;-74
2023/12/02 20:11:16;;;;;;;24.20;7.68;;;;;;;;;;5091899;28;20392;-70
2023/12/02 20:13:42;;;;;;;30.77;8.93;;;;;;;;;;5090506;28;20040;-69
2023/12/02 20:16:09;;;;;;;20.48;7.82;;;;;;;;;;5091804;28;20043;-69
2023/12/02 20:18:35;;;;;;;28.27;8.00;;;;;;;;;;5091918;28;20024;-70
2023/12/02 20:21:01;;;;;;;31.95;8.45;;;;;;;;;;5091801;28;20036;-70
2023/12/02 20:23:27;;;;;;;28.75;9.52;;;;;;;;;;5091911;28;20070;-70
2023/12/02 20:25:53;;;;;;;55.55;11.95;;;;;;;;;;5089960;28;20028;-70
2023/12/02 20:28:18;;;;;;;37.40;10.90;;;;;;;;;;5091882;28;20042;-70
2023/12/02 20:30:44;;;;;;;41.25;10.65;;;;;;;;;;5090910;28;20422;-70
2023/12/02 20:33:11;;;;;;;37.15;10.63;;;;;;;;;;5071368;28;20032;-70
2023/12/02 20:35:36;;;;;;;36.38;10.60;;;;;;;;;;5071492;28;20055;-70
2023/12/02 20:38:02;;;;;;;37.95;10.40;;;;;;;;;;5071156;28;20072;-70
2023/12/02 20:40:27;;;;;;;28.83;9.38;;;;;;;;;;5071209;28;20055;-69
2023/12/02 20:42:53;;;;;;;40.72;12.02;;;;;;;;;;5070224;28;20024;-68
2023/12/02 20:45:18;;;;;;;36.83;9.10;;;;;;;;;;5071117;28;20071;-69
2023/12/02 20:47:44;;;;;;;33.63;9.55;;;;;;;;;;5071161;28;20138;-69
2023/12/02 20:50:09;;;;;;;22.95;8.93;;;;;;;;;;5069868;28;20028;-70
2023/12/02 20:52:35;;;;;;;30.45;9.00;;;;;;;;;;5071042;28;20056;-70
2023/12/02 20:55:00;;;;;;;38.92;9.45;;;;;;;;;;5071336;28;20035;-70
2023/12/02 20:57:26;;;;;;;28.50;8.02;;;;;;;;;;5071168;28;20047;-69
2023/12/02 20:59:51;;;;;;;27.45;8.32;;;;;;;;;;5070994;28;20040;-70
2023/12/02 21:02:17;;;;;;;29.88;9.25;;;;;;;;;;5071040;28;20024;-70
2023/12/02 21:04:42;;;;;;;22.13;8.07;;;;;;;;;;5070935;28;20035;-70
2023/12/02 21:07:08;;;;;;;30.30;8.43;;;;;;;;;;5070872;28;20392;-70
2023/12/02 21:09:33;;;;;;;25.50;8.02;;;;;;;;;;5071250;28;20040;-69
2023/12/02 21:12:00;;;;;;;24.48;7.85;;;;;;;;;;5070943;28;20507;-69
2023/12/02 21:14:26;;;;;;;24.35;7.75;;;;;;;;;;5070760;28;20033;-68
2023/12/02 21:16:51;;;;;;;27.92;9.18;;;;;;;;;;5070849;28;20044;-69
2023/12/02 21:19:17;;;;;;;25.73;6.95;;;;;;;;;;5071113;28;20059;-69
2023/12/02 21:21:42;;;;;;;22.40;6.97;;;;;;;;;;5070761;28;20407;-68
2023/12/02 21:24:09;;;;;;;18.00;5.43;;;;;;;;;;5070796;28;20107;-69
2023/12/02 21:26:35;;;;;;;10.73;5.18;;;;;;;;;;5087896;28;20036;-69
2023/12/02 21:29:01;;;;;;;16.05;5.05;;;;;;;;;;5091240;28;20046;-69
2023/12/02 21:31:26;;;;;;;9.02;4.45;;;;;;;;;;5089961;28;20024;-68
2023/12/02 21:33:53;;;;;;;8.05;4.13;;;;;;;;;;5090938;28;20376;-68
2023/12/02 21:36:18;;;;;;;9.77;4.47;;;;;;;;;;5089513;28;20028;-68
2023/12/02 21:38:52;;;;;;;10.23;4.45;;;;;;;;;;5092942;28;20031;-68
2023/12/02 21:41:18;;;;;;;10.75;4.45;;;;;;;;;;5094957;28;20120;-68
2023/12/02 21:43:46;;;;;;;8.23;3.78;;;;;;;;;;5094929;28;20114;-68
2023/12/02 21:46:24;;;;;;;9.80;4.10;;;;;;;;;;5094518;28;20019;-68
2023/12/02 21:49:02;;;;;;;8.23;4.35;;;;;;;;;;5093574;28;20024;-68
2023/12/02 21:51:41;;;;;;;6.60;4.00;;;;;;;;;;5094815;28;20503;-68
2023/12/02 21:54:18;;;;;;;9.13;4.22;;;;;;;;;;5094672;28;20032;-70
2023/12/02 21:56:48;;;;;;;10.48;4.75;;;;;;;;;;5094939;28;20026;-68
2023/12/02 21:59:20;;;;;;;9.10;4.00;;;;;;;;;;5094638;28;20663;-68
2023/12/02 22:01:50;;;;;;;9.30;4.07;;;;;;;;;;5094493;28;20521;-68
2023/12/02 22:04:19;;;;;;;16.23;4.28;;;;;;;;;;5094733;28;20074;-68
2023/12/02 22:06:49;;;;;;;12.97;4.73;;;;;;;;;;5094654;28;20078;-71
2023/12/02 22:09:26;;;;;;;9.15;4.40;;;;;;;;;;5094607;28;20060;-70
2023/12/02 22:11:56;;;;;;;8.90;4.38;;;;;;;;;;5094603;28;20039;-70
2023/12/02 22:14:23;;;;;;;5.33;3.70;;;;;;;;;;5094461;28;20032;-71
2023/12/02 22:16:56;;;;;;;10.45;4.20;;;;;;;;;;5094065;28;20848;-68
2023/12/02 22:19:22;;;;;;;9.23;3.85;;;;;;;;;;5092815;28;20123;-69
2023/12/02 22:21:48;;;;;;;9.63;4.05;;;;;;;;;;5094154;28;20023;-69
2023/12/02 22:24:15;;;;;;;10.75;4.25;;;;;;;;;;5094138;28;20067;-70
2023/12/02 22:26:41;;;;;;;9.20;4.05;;;;;;;;;;5093953;28;20054;-69
2023/12/02 22:29:09;;;;;;;7.50;3.80;;;;;;;;;;5094326;28;20028;-70
2023/12/02 22:31:36;;;;;;;10.82;4.05;;;;;;;;;;5094034;28;20036;-68
2023/12/02 22:34:12;;;;;;;6.50;3.47;;;;;;;;;;5093826;28;20063;-68
2023/12/02 22:36:43;;;;;;;9.82;4.07;;;;;;;;;;5094348;28;20039;-69
2023/12/02 22:39:20;;;;;;;7.75;3.90;;;;;;;;;;5093936;28;20499;-69
2023/12/02 22:41:51;;;;;;;9.73;3.97;;;;;;;;;;5094461;28;20040;-68
2023/12/02 22:44:17;;;;;;;;;;;;;;;;;;5094582;28;20024;-68
2023/12/02 22:46:47;;;;;;;6.28;3.33;;;;;;;;;;5092073;28;20345;-68
2023/12/02 22:49:21;;;;;;;7.07;3.60;;;;;;;;;;5093556;28;20028;-68
2023/12/02 22:51:47;;;;;;;7.53;3.78;;;;;;;;;;5093490;28;20066;-68
2023/12/02 22:54:21;;;;;;;11.23;3.83;;;;;;;;;;5093915;28;20024;-74
2023/12/02 22:56:47;;;;;;;8.40;3.60;;;;;;;;;;5099221;28;20028;-77
2023/12/02 22:59:18;;;;;;;6.82;3.88;;;;;;;;;;5095873;28;20453;-69
2023/12/02 23:01:45;;;;;;;9.57;3.85;;;;;;;;;;5095284;28;20435;-68
2023/12/02 23:04:33;;;;;;;10.52;3.28;;;;;;;;;;5095277;28;20023;-70
2023/12/02 23:06:59;;;;;;;5.20;3.30;;;;;;;;;;5092731;28;20024;-71
2023/12/02 23:09:28;;;;;;;5.50;3.22;;;;;;;;;;5076566;28;20024;-72
2023/12/02 23:11:54;;;;;;;5.72;3.40;;;;;;;;;;5073918;28;20503;-70
2023/12/02 23:14:22;;;;;;;6.78;3.50;;;;;;;;;;5072066;28;20082;-68
2023/12/02 23:16:48;;;;;;;5.95;3.80;;;;;;;;;;5073636;28;20040;-69
2023/12/02 23:19:35;;;;;;;8.73;3.83;;;;;;;;;;5072781;28;20051;-69
2023/12/02 23:22:00;;;;;;;6.35;3.50;;;;;;;;;;5072977;28;20040;-68
2023/12/02 23:24:30;;;;;;;7.90;4.00;;;;;;;;;;5072734;28;20082;-68
2023/12/02 23:26:56;;;;;;;10.75;3.05;;;;;;;;;;5072618;28;20021;-68
2023/12/02 23:29:21;;;;;;;6.53;3.42;;;;;;;;;;5072783;28;20032;-73
2023/12/02 23:31:47;;;;;;;8.18;3.97;;;;;;;;;;5072629;28;20536;-68
2023/12/02 23:34:13;;;;;;;6.30;3.40;;;;;;;;;;5072479;28;20047;-70
2023/12/02 23:36:40;;;;;;;8.20;3.42;;;;;;;;;;5072694;28;20021;-70
2023/12/02 23:39:06;;;;;;;10.52;3.22;;;;;;;;;;5072420;28;20477;-69
2023/12/02 23:41:34;;;;;;;7.18;3.10;;;;;;;;;;5078624;28;20055;-68
2023/12/02 23:44:06;;;;;;;9.23;3.17;;;;;;;;;;5091108;28;20020;-68
2023/12/02 23:46:32;;;;;;;9.90;3.40;;;;;;;;;;5091572;28;20055;-68
2023/12/02 23:48:57;;;;;;;5.72;3.00;;;;;;;;;;5092507;28;20480;-73
2023/12/02 23:51:22;;;;;;;8.25;3.28;;;;;;;;;;5092619;28;20032;-68
2023/12/02 23:53:48;;;;;;;6.60;3.30;;;;;;;;;;5092696;28;20103;-68
2023/12/02 23:56:14;;;;;;;13.23;3.65;;;;;;;;;;5094103;28;20027;-68
2023/12/02 23:58:39;;;;;;;8.90;3.67;;;;;;;;;;5093787;28;20035;-72
